Hauptseite
METAR-TAF:

METAR-TAF

Flughäfen :

Flughafen Montpellier

Montpellier, Frankreich

Breite: 43-35N, Länge: 003-58E, Höhe: 5 m

Beobachtung

Neuester Wetterbericht von vor 34 Minuten, um 18:30 UTC
Wind 5 kt aus West/Südwest
Temperatur 11°C
Luftfeuchtigkeit 71%
Luftdruck 1021 hPa
Sichtweite 10 km oder mehr
keine Wolken unter 1500 m und keine Kumulonimbus oder Gewitterwolken

METAR: LFMT 071830Z AUTO 25005KT CAVOK 11/06 Q1021 NOSIG

Zeit: 20:04 (19:04 UTC)

Prognose

Neuester Wetterbericht von vor 5 Stunden und 4 Minuten, um 14:00 UTC
Gültige Prognose vom 07 um 15 UTC bis 08 um 15 UTC
Wind 3 kt aus unterschiedlichen Richtungen
Sichtweite 10 km oder mehr
keine Wolken unter 1500 m und keine Kumulonimbus oder Gewitterwolken

TAF: LFMT 071400Z 0715/0815 VRB03KT CAVOK

Wetterbeobachtungen und Prognosen von mehr als 4000 Flughäfen (METAR und TAF Bericht).

Die verfügbaren Stationen werden durch gelbe und rote Markierungen auf der Karte dargestellt.

Führen Sie die Maus auf sie, um den Namen der Station zu sehen.

Darauf klicken, um die Beobachtung von Wetterbeobachtungen und Prognosen zu sehen.

Um die Karte zu ändern : klicken Sie auf den grünen Tasten mit einem schwarzen Kreuz Zum Vergrößern, auf den grünen Button mit einem Gedankenstrich zu verkleinern, oder auf die grünen Pfeile für benachbarte Karten.


METAR-TAF: